Welcome to our new website - Welkom op onze vernieuwde website - Bienvenue sur notre nouveau site web - Willkommen auf unserer neuen Website
Check our progress frequently. Prüfen Sie unsere Fortschritte regelmäßig. Consultez notre progression fréquemment. Komt u straks nog eens terug


Blik over 't Veldj richting Zuid-Westen Meer informatie Blik over 't Veldj richting Zuid-Westen


Onweer radar Meer informatie blitzortung!


Regen radar Meer informatie rain snow radar


Bezoek onze andere website:

Template documentation
and downloads

And another site


Select another period ( hide this area )

Eenheden Periode Custom range Directly to
Metrisch Engels Beide
Dagelijkse Wekelijkse Maandelijkse Jaarlijkse
use both date-selectors for a custom range
previous Dag
With this date

WeatherUnderground graphs for this period ( click here )


Dagelijkse Samenvatting Maandag 17 december 2018
Tijd Temp. ( °C ) Dew pt. ( °C ) Wind ( km/h ) van Windvlaag ( km/h ) Luchtdruk ( hPa ) Humid.( % ) Rainrate ( cm )
Hoog8,4 5,8 20,9 ZW ( 240/1002 ) 22,5 1019,9 95 0,50
Gemiddeld4,9 3,6 5,5 ZO #42/182 10,7 1015,7 91 0,80
Laag2,2 1,2 -   1,6 1013,4 83 -
Dagelijkse Tabular details for Maandag 17 december 2018
Tijd Temp. ( °C ) Dew pt. ( °C ) Wind ( km/h ) van Windvlaag ( km/h ) Luchtdruk ( hPa ) Humid.( % ) Rainrate ( cm )
00:01 2,7 1,7 1,4 OZO 3,2 1014,1 93 -
00:06 2,6 1,4 1,4 ZO 4,8 1014,1 92 -
00:11 2,6 1,6 3,2 Oosten 3,2 1014,1 93 -
00:16 2,6 1,6 4,7 OZO 4,8 1014,1 93 -
00:21 2,6 1,6 1,4 ZO 3,2 1014,1 93 -
00:26 2,6 1,6 3,2 OZO 4,8 1013,8 93 -
00:31 2,6 1,6   Kalm 3,2 1013,8 93 -
00:36 2,6 1,6   Kalm 3,2 1013,8 93 -
00:41 2,6 1,6   Kalm 3,2 1013,8 93 -
00:46 2,6 1,6   Kalm 1,6 1013,8 93 -
00:51 2,6 1,6 1,4 OZO 3,2 1013,8 93 -
00:56 2,7 1,7   Kalm 3,2 1013,8 93 -
01:01 2,7 1,7   Kalm 1,6 1013,4 93 -
01:06 2,7 1,7   Kalm 4,8 1013,4 93 -
01:11 2,7 1,7 1,4 ZZO 3,2 1013,4 93 -
01:16 2,6 1,6 1,4 ZZO 6,4 1013,4 93 -
01:21 2,6 1,6 4,7 ZZO 8,0 1013,4 93 -
01:26 2,5 1,5 6,4 OZO 6,4 1013,4 93 -
01:31 2,4 1,4 6,4 ZO 6,4 1013,4 93 -
01:36 2,4 1,4 1,4 ZO 6,4 1013,4 93 -
01:41 2,4 1,4 1,4 OZO 4,8 1013,4 93 -
01:46 2,4 1,4 3,2 Zuiden 3,2 1013,4 93 -
01:51 2,4 1,4 1,4 OZO 3,2 1013,4 93 -
01:56 2,4 1,4   Kalm 4,8 1013,4 93 -
02:01 2,4 1,4 1,4 ZZO 1,6 1013,4 93 -
02:06 2,4 1,4 3,2 ZO 6,4 1013,4 93 -
02:11 2,4 1,4 1,4 ZO 4,8 1013,4 93 -
02:16 2,4 1,4 1,4 OZO 4,8 1013,4 93 -
02:21 2,4 1,4 3,2 ZO 3,2 1013,4 93 -
02:26 2,4 1,4 3,2 ZO 6,4 1013,4 93 -
02:31 2,3 1,3 7,9 ZO 8,0 1013,4 93 -
02:36 2,3 1,3 6,4 OZO 8,0 1013,8 93 -
02:41 2,2 1,2 3,2 Zuiden 6,4 1013,4 93 -
02:46 2,2 1,2 3,2 OZO 9,7 1013,8 93 -
02:51 2,2 1,2 6,4 ZZO 8,0 1013,4 93 -
02:56 2,2 1,2 1,4 ZO 6,4 1013,8 93 -
03:01 2,2 1,2 4,7 ZO 6,4 1013,4 93 -
03:06 2,3 1,3 1,4 ZO 9,7 1013,8 93 -
03:11 2,4 1,4 1,4 Zuiden 6,4 1013,8 93 -
03:16 2,4 1,4 3,2 ZO 6,4 1013,8 93 -
03:21 2,6 1,6   Kalm 4,8 1013,8 93 -
03:26 2,6 1,6 7,9 Oosten 9,7 1013,8 93 -
03:31 2,6 1,6 3,2 ZO 6,4 1014,1 93 -
03:36 2,7 1,7 1,4 OZO 3,2 1013,8 93 -
03:41 2,7 1,7   Kalm 4,8 1013,8 93 -
03:46 2,7 1,7 3,2 ZZO 3,2 1014,1 93 -
03:51 2,7 1,7 6,4 ZO 6,4 1013,8 93 -
03:56 2,7 1,7   Kalm 3,2 1013,8 93 -
04:02 2,7 1,7 3,2 ZZO 3,2 1013,8 93 -
04:07 2,8 1,8 4,7 ZZO 8,0 1013,8 93 -
04:12 2,8 1,8 7,9 ZO 12,9 1013,8 93 -
04:17 2,9 1,9 4,7 ZO 11,3 1013,8 93 -
04:22 2,9 1,7 6,4 ZO 9,7 1013,8 92 -
04:27 2,9 1,7 6,4 ZZO 11,3 1013,8 92 -
04:32 2,9 1,7 3,2 ZO 9,7 1013,8 92 -
04:37 2,9 1,7 3,2 ZO 6,4 1013,8 92 -
04:42 2,9 1,7 7,9 ZO 8,0 1013,8 92 -
04:47 2,9 1,7 4,7 ZZO 4,8 1013,8 92 -
04:52 3,0 1,8   Kalm 4,8 1013,8 92 -
04:57 3,0 1,8 7,9 ZO 9,7 1013,8 92 -
05:02 3,1 1,9 4,7 ZO 12,9 1013,8 92 -
05:07 3,1 1,9 4,7 ZZO 11,3 1013,8 92 -
05:12 3,1 1,9 4,7 Oosten 8,0 1014,1 92 -
05:17 3,2 2,0 4,7 ZZO 11,3 1014,1 92 -
05:22 3,2 2,0 4,7 ZO 8,0 1014,1 92 -
05:27 3,2 2,0 3,2 ZO 8,0 1014,1 92 -
05:32 3,2 2,0 4,7 ZO 4,8 1014,1 92 -
05:37 3,3 2,1 4,7 ZO 9,7 1014,1 92 -
05:42 3,3 2,1 7,9 OZO 11,3 1014,1 92 -
05:47 3,4 2,1 1,4 ZZO 11,3 1014,1 91 -
05:52 3,4 2,1 7,9 ZZO 14,5 1014,1 91 -
05:57 3,5 2,2 6,4 ZO 9,7 1014,1 91 -
06:02 3,5 2,2 4,7 Zuiden 8,0 1014,1 91 -
06:07 3,6 2,3 4,7 ZO 14,5 1014,4 91 -
06:12 3,6 2,3 6,4 ZO 11,3 1014,1 91 -
06:17 3,6 2,3 4,7 ZO 9,7 1014,1 91 0,30
06:22 3,7 2,4 3,2 ZZO 8,0 1014,1 91 0,30
06:27 3,6 2,3 6,4 Zuiden 8,0 1014,4 91 0,30
06:32 3,6 2,4 1,4 ZZO 6,4 1014,4 92 0,30
06:37 3,6 2,4 1,4 ZO 8,0 1014,4 92 0,30
06:42 3,6 2,4 3,2 ZZO 6,4 1014,4 92 0,30
06:47 3,6 2,4 3,2 ZZO 4,8 1014,4 92 0,30
06:52 3,6 2,4 1,4 ZO 6,4 1014,4 92 0,30
06:57 3,7 2,5 4,7 ZZW 8,0 1014,4 92 0,50
07:02 3,7 2,7 6,4 ZO 8,0 1014,8 93 0,50
07:07 3,8 2,8 6,4 ZO 8,0 1014,8 93 0,50
07:12 3,9 2,9 4,7 ZO 9,7 1014,8 93 0,50
07:17 3,9 2,9 1,4 ZO 9,7 1014,8 93 0,50
07:22 4,0 3,0 3,2 Zuiden 6,4 1014,8 93 0,50
07:27 4,1 3,1 3,2 ZO 6,4 1015,1 93 0,50
07:32 4,1 3,1 3,2 ZZO 6,4 1015,1 93 0,50
07:37 4,2 3,3 4,7 ZO 4,8 1015,1 94 0,50
07:42 4,3 3,4 1,4 ZO 4,8 1015,1 94 0,50
07:47 4,4 3,5 3,2 ZO 6,4 1015,1 94 0,50
07:52 4,6 3,7 1,4 Zuiden 6,4 1015,1 94 0,50
07:57 4,7 3,8 4,7 ZZO 6,4 1015,1 94 0,50
08:02 4,8 3,9 6,4 ZZO 8,0 1015,1 94 0,50
08:07 5,1 4,4 3,2 ZW 6,4 1015,1 95 0,50
08:12 5,3 4,6 9,7 ZZW 11,3 1015,5 95 0,50
08:17 5,5 4,8 1,4 ZZW 9,7 1015,5 95 0,50
08:22 5,6 4,7 4,7 ZZW 12,9 1015,5 94 0,30
08:27 5,7 4,8 3,2 ZZW 11,3 1015,5 94 0,30
08:32 5,8 4,9 7,9 Zuiden 11,3 1015,5 94 0,30
08:37 5,8 4,9 6,4 ZO 9,7 1015,8 94 0,30
08:42 5,8 4,9 7,9 ZZW 12,9 1015,8 94 0,30
08:47 5,9 5,0 6,4 ZZW 11,3 1015,8 94 0,30
08:52 5,9 5,0 6,4 Zuiden 9,7 1015,8 94 0,30
08:57 5,9 5,0 4,7 WZW 12,9 1015,8 94 0,30
09:02 6,0 5,1 6,4 ZW 12,9 1016,1 94 0,30
09:07 6,1 5,1 11,1 ZW 14,5 1016,1 93 -
09:12 6,2 5,2 4,7 Zuiden 8,0 1016,1 93 -
09:17 6,2 5,2 9,7 ZZW 11,3 1016,1 93 -
09:22 6,2 5,2 7,9 WZW 9,7 1016,1 93 -
09:27 6,3 5,3 7,9 ZZW 11,3 1016,1 93 -
09:32 6,4 5,4 6,4 ZZW 14,5 1016,5 93 -
09:37 6,4 5,2 3,2 ZW 20,9 1016,5 92 -
09:42 6,5 5,3 4,7 ZW 20,9 1016,5 92 -
09:47 6,6 5,4 7,9 WZW 16,1 1016,5 92 -
09:52 6,6 5,4 6,4 ZW 17,7 1016,8 92 -
09:57 6,6 5,4 14,3 WZW 16,1 1016,8 92 -
10:02 6,6 5,4 11,1 ZW 17,7 1016,8 92 -
10:07 6,6 5,4 7,9 WZW 16,1 1016,8 92 -
10:12 6,7 5,5 4,7 ZZO 12,9 1016,8 92 -
10:17 6,7 5,5 7,9 ZW 17,7 1017,2 92 -
10:22 6,7 5,5 9,7 WZW 14,5 1017,2 92 -
10:27 6,7 5,5 6,4 ZZW 16,1 1017,2 92 -
10:32 6,8 5,6 7,9 ZZW 14,5 1017,2 92 -
10:37 6,8 5,6 6,4 WZW 16,1 1017,5 92 -
10:42 6,8 5,6 6,4 ZZW 14,5 1017,5 92 -
10:47 6,9 5,7 4,7 Zuiden 9,7 1017,5 92 -
10:52 6,9 5,7 3,2 WZW 17,7 1017,5 92 -
10:57 6,9 5,5 13,0 WZW 17,7 1017,5 91 -
11:02 7,0 5,6 3,2 ZZW 16,1 1017,8 91 -
11:07 7,1 5,7 11,1 WZW 19,3 1017,8 91 -
11:12 7,1 5,6 11,1 ZW 17,7 1017,5 90 -
11:17 7,1 5,6 6,4 WZW 17,7 1017,8 90 -
11:22 7,2 5,7 19,5 ZW 19,3 1017,8 90 -
11:27 7,2 5,5 11,1 WZW 17,7 1017,8 89 -
11:32 7,2 5,5 3,2 Zuiden 12,9 1017,8 89 -
11:37 7,2 5,5 7,9 ZW 12,9 1017,8 89 -
11:42 7,2 5,5 9,7 WZW 14,5 1017,8 89 -
11:47 7,2 5,5 11,1 WZW 12,9 1017,8 89 -
11:52 7,2 5,5 9,7 ZZW 16,1 1017,8 89 -
11:57 7,2 5,5 11,1 WZW 19,3 1018,2 89 -
12:02 7,2 5,5 7,9 ZZW 17,7 1018,2 89 -
12:07 7,2 5,5 14,3 ZW 16,1 1018,2 89 -
12:12 7,2 5,5 9,7 ZW 16,1 1018,2 89 -
12:17 7,2 5,5 9,7 ZW 19,3 1017,8 89 -
12:22 7,2 5,5 6,4 ZW 22,5 1018,2 89 -
12:27 7,2 5,5 9,7 ZW 19,3 1018,2 89 -
12:32 7,2 5,5 7,9 WZW 19,3 1018,2 89 -
12:37 7,2 5,5 9,7 ZW 20,9 1018,2 89 -
12:42 7,2 5,5 3,2 ZZW 16,1 1018,2 89 -
12:47 7,2 5,5 4,7 ZW 12,9 1018,2 89 -
12:52 7,2 5,5 3,2 Westen 12,9 1018,2 89 -
12:57 7,2 5,5 9,7 WZW 14,5 1018,2 89 -
13:02 7,2 5,5 9,7 ZZO 16,1 1018,2 89 -
13:07 7,3 5,6 6,4 WZW 9,7 1018,2 89 -
13:12 7,4 5,5 13,0 ZW 17,7 1018,5 88 -
13:17 7,4 5,5 7,9 WZW 16,1 1018,5 88 0,30
13:22 7,5 5,6 7,9 WNW 17,7 1018,5 88 0,30
13:27 7,5 5,5 14,3 ZW 22,5 1018,5 87 0,30
13:32 7,6 5,6 4,7 ZW 17,7 1018,5 87 0,30
13:37 7,7 5,7 3,2 ZW 11,3 1018,5 87 0,30
13:42 7,7 5,7 14,3 WZW 16,1 1018,8 87 0,30
13:47 7,8 5,6 6,4 Westen 16,1 1018,8 86 0,30
13:52 7,8 5,6 11,1 Westen 17,7 1018,8 86 0,30
13:57 7,9 5,5 7,9 WNW 14,5 1018,8 85 0,30
14:02 8,0 5,6 3,2 ZW 12,9 1019,2 85 0,30
14:07 8,1 5,7 4,7 Westen 16,1 1019,2 85 0,30
14:12 8,1 5,6 4,7 ZW 12,9 1019,2 84 -
14:17 8,1 5,6 7,9 Westen 20,9 1019,5 84 -
14:22 8,2 5,7 7,9 Westen 14,5 1019,5 84 -
14:27 8,1 5,6 14,3 ZW 17,7 1019,2 84 -
14:32 8,2 5,7 3,2 ZZW 14,5 1019,5 84 -
14:37 8,2 5,7 20,9 WZW 20,9 1019,2 84 -
14:42 8,2 5,7 3,2 ZZW 12,9 1019,5 84 -
14:47 8,2 5,7 7,9 ZW 17,7 1019,5 84 -
14:52 8,2 5,7 4,7 ZW 12,9 1019,5 84 -
14:57 8,2 5,7 7,9 Westen 16,1 1019,5 84 -
15:02 8,3 5,8 3,2 WZW 17,7 1019,9 84 -
15:07 8,4 5,7 13,0 ZW 14,5 1019,5 83 -
Dagelijkse Samenvatting Maandag 17 december 2018
Tijd Temp. ( °C ) Dew pt. ( °C ) Wind ( km/h ) van Windvlaag ( km/h ) Luchtdruk ( hPa ) Humid.( % ) Rainrate ( cm )
Hoog8,4 5,8 20,9 ZW ( 240/1002 ) 22,5 1019,9 95 0,50
Gemiddeld4,9 3,6 5,5 ZO #42/182 10,7 1015,7 91 0,80
Laag2,2 1,2 -   1,6 1013,4 83 -
Dagelijkse Tabular details for Maandag 17 december 2018
Tijd Temp. ( °C ) Dew pt. ( °C ) Wind ( km/h ) van Windvlaag ( km/h ) Luchtdruk ( hPa ) Humid.( % ) Rainrate ( cm )
00:01 2,7 1,7 1,4 OZO 3,2 1014,1 93 -
00:06 2,6 1,4 1,4 ZO 4,8 1014,1 92 -
00:11 2,6 1,6 3,2 Oosten 3,2 1014,1 93 -
00:16 2,6 1,6 4,7 OZO 4,8 1014,1 93 -
00:21 2,6 1,6 1,4 ZO 3,2 1014,1 93 -
00:26 2,6 1,6 3,2 OZO 4,8 1013,8 93 -
00:31 2,6 1,6   Kalm 3,2 1013,8 93 -
00:36 2,6 1,6   Kalm 3,2 1013,8 93 -
00:41 2,6 1,6   Kalm 3,2 1013,8 93 -
00:46 2,6 1,6   Kalm 1,6 1013,8 93 -
00:51 2,6 1,6 1,4 OZO 3,2 1013,8 93 -
00:56 2,7 1,7   Kalm 3,2 1013,8 93 -
01:01 2,7 1,7   Kalm 1,6 1013,4 93 -
01:06 2,7 1,7   Kalm 4,8 1013,4 93 -
01:11 2,7 1,7 1,4 ZZO 3,2 1013,4 93 -
01:16 2,6 1,6 1,4 ZZO 6,4 1013,4 93 -
01:21 2,6 1,6 4,7 ZZO 8,0 1013,4 93 -
01:26 2,5 1,5 6,4 OZO 6,4 1013,4 93 -
01:31 2,4 1,4 6,4 ZO 6,4 1013,4 93 -
01:36 2,4 1,4 1,4 ZO 6,4 1013,4 93 -
01:41 2,4 1,4 1,4 OZO 4,8 1013,4 93 -
01:46 2,4 1,4 3,2 Zuiden 3,2 1013,4 93 -
01:51 2,4 1,4 1,4 OZO 3,2 1013,4 93 -
01:56 2,4 1,4   Kalm 4,8 1013,4 93 -
02:01 2,4 1,4 1,4 ZZO 1,6 1013,4 93 -
02:06 2,4 1,4 3,2 ZO 6,4 1013,4 93 -
02:11 2,4 1,4 1,4 ZO 4,8 1013,4 93 -
02:16 2,4 1,4 1,4 OZO 4,8 1013,4 93 -
02:21 2,4 1,4 3,2 ZO 3,2 1013,4 93 -
02:26 2,4 1,4 3,2 ZO 6,4 1013,4 93 -
02:31 2,3 1,3 7,9 ZO 8,0 1013,4 93 -
02:36 2,3 1,3 6,4 OZO 8,0 1013,8 93 -
02:41 2,2 1,2 3,2 Zuiden 6,4 1013,4 93 -
02:46 2,2 1,2 3,2 OZO 9,7 1013,8 93 -
02:51 2,2 1,2 6,4 ZZO 8,0 1013,4 93 -
02:56 2,2 1,2 1,4 ZO 6,4 1013,8 93 -
03:01 2,2 1,2 4,7 ZO 6,4 1013,4 93 -
03:06 2,3 1,3 1,4 ZO 9,7 1013,8 93 -
03:11 2,4 1,4 1,4 Zuiden 6,4 1013,8 93 -
03:16 2,4 1,4 3,2 ZO 6,4 1013,8 93 -
03:21 2,6 1,6   Kalm 4,8 1013,8 93 -
03:26 2,6 1,6 7,9 Oosten 9,7 1013,8 93 -
03:31 2,6 1,6 3,2 ZO 6,4 1014,1 93 -
03:36 2,7 1,7 1,4 OZO 3,2 1013,8 93 -
03:41 2,7 1,7   Kalm 4,8 1013,8 93 -
03:46 2,7 1,7 3,2 ZZO 3,2 1014,1 93 -
03:51 2,7 1,7 6,4 ZO 6,4 1013,8 93 -
03:56 2,7 1,7   Kalm 3,2 1013,8 93 -
04:02 2,7 1,7 3,2 ZZO 3,2 1013,8 93 -
04:07 2,8 1,8 4,7 ZZO 8,0 1013,8 93 -
04:12 2,8 1,8 7,9 ZO 12,9 1013,8 93 -
04:17 2,9 1,9 4,7 ZO 11,3 1013,8 93 -
04:22 2,9 1,7 6,4 ZO 9,7 1013,8 92 -
04:27 2,9 1,7 6,4 ZZO 11,3 1013,8 92 -
04:32 2,9 1,7 3,2 ZO 9,7 1013,8 92 -
04:37 2,9 1,7 3,2 ZO 6,4 1013,8 92 -
04:42 2,9 1,7 7,9 ZO 8,0 1013,8 92 -
04:47 2,9 1,7 4,7 ZZO 4,8 1013,8 92 -
04:52 3,0 1,8   Kalm 4,8 1013,8 92 -
04:57 3,0 1,8 7,9 ZO 9,7 1013,8 92 -
05:02 3,1 1,9 4,7 ZO 12,9 1013,8 92 -
05:07 3,1 1,9 4,7 ZZO 11,3 1013,8 92 -
05:12 3,1 1,9 4,7 Oosten 8,0 1014,1 92 -
05:17 3,2 2,0 4,7 ZZO 11,3 1014,1 92 -
05:22 3,2 2,0 4,7 ZO 8,0 1014,1 92 -
05:27 3,2 2,0 3,2 ZO 8,0 1014,1 92 -
05:32 3,2 2,0 4,7 ZO 4,8 1014,1 92 -
05:37 3,3 2,1 4,7 ZO 9,7 1014,1 92 -
05:42 3,3 2,1 7,9 OZO 11,3 1014,1 92 -
05:47 3,4 2,1 1,4 ZZO 11,3 1014,1 91 -
05:52 3,4 2,1 7,9 ZZO 14,5 1014,1 91 -
05:57 3,5 2,2 6,4 ZO 9,7 1014,1 91 -
06:02 3,5 2,2 4,7 Zuiden 8,0 1014,1 91 -
06:07 3,6 2,3 4,7 ZO 14,5 1014,4 91 -
06:12 3,6 2,3 6,4 ZO 11,3 1014,1 91 -
06:17 3,6 2,3 4,7 ZO 9,7 1014,1 91 0,30
06:22 3,7 2,4 3,2 ZZO 8,0 1014,1 91 0,30
06:27 3,6 2,3 6,4 Zuiden 8,0 1014,4 91 0,30
06:32 3,6 2,4 1,4 ZZO 6,4 1014,4 92 0,30
06:37 3,6 2,4 1,4 ZO 8,0 1014,4 92 0,30
06:42 3,6 2,4 3,2 ZZO 6,4 1014,4 92 0,30
06:47 3,6 2,4 3,2 ZZO 4,8 1014,4 92 0,30
06:52 3,6 2,4 1,4 ZO 6,4 1014,4 92 0,30
06:57 3,7 2,5 4,7 ZZW 8,0 1014,4 92 0,50
07:02 3,7 2,7 6,4 ZO 8,0 1014,8 93 0,50
07:07 3,8 2,8 6,4 ZO 8,0 1014,8 93 0,50
07:12 3,9 2,9 4,7 ZO 9,7 1014,8 93 0,50
07:17 3,9 2,9 1,4 ZO 9,7 1014,8 93 0,50
07:22 4,0 3,0 3,2 Zuiden 6,4 1014,8 93 0,50
07:27 4,1 3,1 3,2 ZO 6,4 1015,1 93 0,50
07:32 4,1 3,1 3,2 ZZO 6,4 1015,1 93 0,50
07:37 4,2 3,3 4,7 ZO 4,8 1015,1 94 0,50
07:42 4,3 3,4 1,4 ZO 4,8 1015,1 94 0,50
07:47 4,4 3,5 3,2 ZO 6,4 1015,1 94 0,50
07:52 4,6 3,7 1,4 Zuiden 6,4 1015,1 94 0,50
07:57 4,7 3,8 4,7 ZZO 6,4 1015,1 94 0,50
08:02 4,8 3,9 6,4 ZZO 8,0 1015,1 94 0,50
08:07 5,1 4,4 3,2 ZW 6,4 1015,1 95 0,50
08:12 5,3 4,6 9,7 ZZW 11,3 1015,5 95 0,50
08:17 5,5 4,8 1,4 ZZW 9,7 1015,5 95 0,50
08:22 5,6 4,7 4,7 ZZW 12,9 1015,5 94 0,30
08:27 5,7 4,8 3,2 ZZW 11,3 1015,5 94 0,30
08:32 5,8 4,9 7,9 Zuiden 11,3 1015,5 94 0,30
08:37 5,8 4,9 6,4 ZO 9,7 1015,8 94 0,30
08:42 5,8 4,9 7,9 ZZW 12,9 1015,8 94 0,30
08:47 5,9 5,0 6,4 ZZW 11,3 1015,8 94 0,30
08:52 5,9 5,0 6,4 Zuiden 9,7 1015,8 94 0,30
08:57 5,9 5,0 4,7 WZW 12,9 1015,8 94 0,30
09:02 6,0 5,1 6,4 ZW 12,9 1016,1 94 0,30
09:07 6,1 5,1 11,1 ZW 14,5 1016,1 93 -
09:12 6,2 5,2 4,7 Zuiden 8,0 1016,1 93 -
09:17 6,2 5,2 9,7 ZZW 11,3 1016,1 93 -
09:22 6,2 5,2 7,9 WZW 9,7 1016,1 93 -
09:27 6,3 5,3 7,9 ZZW 11,3 1016,1 93 -
09:32 6,4 5,4 6,4 ZZW 14,5 1016,5 93 -
09:37 6,4 5,2 3,2 ZW 20,9 1016,5 92 -
09:42 6,5 5,3 4,7 ZW 20,9 1016,5 92 -
09:47 6,6 5,4 7,9 WZW 16,1 1016,5 92 -
09:52 6,6 5,4 6,4 ZW 17,7 1016,8 92 -
09:57 6,6 5,4 14,3 WZW 16,1 1016,8 92 -
10:02 6,6 5,4 11,1 ZW 17,7 1016,8 92 -
10:07 6,6 5,4 7,9 WZW 16,1 1016,8 92 -
10:12 6,7 5,5 4,7 ZZO 12,9 1016,8 92 -
10:17 6,7 5,5 7,9 ZW 17,7 1017,2 92 -
10:22 6,7 5,5 9,7 WZW 14,5 1017,2 92 -
10:27 6,7 5,5 6,4 ZZW 16,1 1017,2 92 -
10:32 6,8 5,6 7,9 ZZW 14,5 1017,2 92 -
10:37 6,8 5,6 6,4 WZW 16,1 1017,5 92 -
10:42 6,8 5,6 6,4 ZZW 14,5 1017,5 92 -
10:47 6,9 5,7 4,7 Zuiden 9,7 1017,5 92 -
10:52 6,9 5,7 3,2 WZW 17,7 1017,5 92 -
10:57 6,9 5,5 13,0 WZW 17,7 1017,5 91 -
11:02 7,0 5,6 3,2 ZZW 16,1 1017,8 91 -
11:07 7,1 5,7 11,1 WZW 19,3 1017,8 91 -
11:12 7,1 5,6 11,1 ZW 17,7 1017,5 90 -
11:17 7,1 5,6 6,4 WZW 17,7 1017,8 90 -
11:22 7,2 5,7 19,5 ZW 19,3 1017,8 90 -
11:27 7,2 5,5 11,1 WZW 17,7 1017,8 89 -
11:32 7,2 5,5 3,2 Zuiden 12,9 1017,8 89 -
11:37 7,2 5,5 7,9 ZW 12,9 1017,8 89 -
11:42 7,2 5,5 9,7 WZW 14,5 1017,8 89 -
11:47 7,2 5,5 11,1 WZW 12,9 1017,8 89 -
11:52 7,2 5,5 9,7 ZZW 16,1 1017,8 89 -
11:57 7,2 5,5 11,1 WZW 19,3 1018,2 89 -
12:02 7,2 5,5 7,9 ZZW 17,7 1018,2 89 -
12:07 7,2 5,5 14,3 ZW 16,1 1018,2 89 -
12:12 7,2 5,5 9,7 ZW 16,1 1018,2 89 -
12:17 7,2 5,5 9,7 ZW 19,3 1017,8 89 -
12:22 7,2 5,5 6,4 ZW 22,5 1018,2 89 -
12:27 7,2 5,5 9,7 ZW 19,3 1018,2 89 -
12:32 7,2 5,5 7,9 WZW 19,3 1018,2 89 -
12:37 7,2 5,5 9,7 ZW 20,9 1018,2 89 -
12:42 7,2 5,5 3,2 ZZW 16,1 1018,2 89 -
12:47 7,2 5,5 4,7 ZW 12,9 1018,2 89 -
12:52 7,2 5,5 3,2 Westen 12,9 1018,2 89 -
12:57 7,2 5,5 9,7 WZW 14,5 1018,2 89 -
13:02 7,2 5,5 9,7 ZZO 16,1 1018,2 89 -
13:07 7,3 5,6 6,4 WZW 9,7 1018,2 89 -
13:12 7,4 5,5 13,0 ZW 17,7 1018,5 88 -
13:17 7,4 5,5 7,9 WZW 16,1 1018,5 88 0,30
13:22 7,5 5,6 7,9 WNW 17,7 1018,5 88 0,30
13:27 7,5 5,5 14,3 ZW 22,5 1018,5 87 0,30
13:32 7,6 5,6 4,7 ZW 17,7 1018,5 87 0,30
13:37 7,7 5,7 3,2 ZW 11,3 1018,5 87 0,30
13:42 7,7 5,7 14,3 WZW 16,1 1018,8 87 0,30
13:47 7,8 5,6 6,4 Westen 16,1 1018,8 86 0,30
13:52 7,8 5,6 11,1 Westen 17,7 1018,8 86 0,30
13:57 7,9 5,5 7,9 WNW 14,5 1018,8 85 0,30
14:02 8,0 5,6 3,2 ZW 12,9 1019,2 85 0,30
14:07 8,1 5,7 4,7 Westen 16,1 1019,2 85 0,30
14:12 8,1 5,6 4,7 ZW 12,9 1019,2 84 -
14:17 8,1 5,6 7,9 Westen 20,9 1019,5 84 -
14:22 8,2 5,7 7,9 Westen 14,5 1019,5 84 -
14:27 8,1 5,6 14,3 ZW 17,7 1019,2 84 -
14:32 8,2 5,7 3,2 ZZW 14,5 1019,5 84 -
14:37 8,2 5,7 20,9 WZW 20,9 1019,2 84 -
14:42 8,2 5,7 3,2 ZZW 12,9 1019,5 84 -
14:47 8,2 5,7 7,9 ZW 17,7 1019,5 84 -
14:52 8,2 5,7 4,7 ZW 12,9 1019,5 84 -
14:57 8,2 5,7 7,9 Westen 16,1 1019,5 84 -
15:02 8,3 5,8 3,2 WZW 17,7 1019,9 84 -
15:07 8,4 5,7 13,0 ZW 14,5 1019,5 83 -

Download your copy of this data-set  here

Our weather-data as stored at Weather Underground. Script ontwikkeld door Jim McMurry. Aangepast voor de template door Leuven-Template.eu

U vindt ons ook hier:

Weather Underground

Apparatuur in gebruik:

Weerstation
Davis Vantage Vue

Webleverancier
One.com

Davis Vantage Vue

One.com